Time;durP1;ratioP1;P1;durP2;ratioP2;P2;SDS_P1;SDS_P2;PMS_P1;PMS_P2;Temp;Humidity;BMP_temperature;BMP_pressure;BME280_temperature;BME280_humidity;BME280_pressure;Samples;Min_cycle;Max_cycle;Signal;HPM_P1;HPM_P2
2021/12/11 00:01:16;;;;;;;;;10.00;6.75;;;;;20.81;42.10;100226.16;6438848;22;45436;-80
2021/12/11 00:03:43;;;;;;;;;7.75;6.50;;;;;20.83;42.07;100226.09;6383412;22;45988;-79
2021/12/11 00:06:22;;;;;;;;;8.75;8.00;;;;;20.83;42.10;100219.00;6410398;22;45218;-79
2021/12/11 00:08:50;;;;;;;;;6.75;6.50;;;;;20.84;42.36;100227.81;6382211;22;45324;-78
2021/12/11 00:11:29;;;;;;;;;7.75;7.00;;;;;20.84;42.30;100228.69;6383399;22;46131;-80
2021/12/11 00:13:55;;;;;;;;;9.00;8.00;;;;;20.85;42.11;100245.47;6409589;22;45089;-80
2021/12/11 00:16:26;;;;;;;;;8.75;6.50;;;;;20.84;42.22;100247.25;6383799;22;45208;-81
2021/12/11 00:18:54;;;;;;;;;7.50;6.00;;;;;20.85;42.13;100250.78;6384199;22;45367;-80
2021/12/11 00:21:35;;;;;;;;;8.25;7.25;;;;;20.85;41.79;100254.31;6383098;22;46142;-79
2021/12/11 00:24:03;;;;;;;;;9.25;7.00;;;;;20.85;42.20;100270.22;6383747;22;45480;-79
2021/12/11 00:26:31;;;;;;;;;8.00;8.00;;;;;20.86;42.28;100261.34;6382497;22;45113;-79
2021/12/11 00:28:56;;;;;;;;;9.25;7.25;;;;;20.85;42.47;100274.66;6383131;22;45167;-79
2021/12/11 00:31:22;;;;;;;;;7.75;6.75;;;;;20.86;42.53;100274.59;6382876;22;45448;-79
2021/12/11 00:33:49;;;;;;;;;7.00;6.00;;;;;20.86;42.71;100279.03;6382233;22;60788;-79
2021/12/11 00:36:19;;;;;;;;;9.25;9.25;;;;;20.86;42.10;100276.38;6409990;22;45436;-79
2021/12/11 00:38:47;;;;;;;;;10.00;5.50;;;;;20.86;42.10;100285.19;6382009;22;45151;-79
2021/12/11 00:41:14;;;;;;;;;7.00;7.00;;;;;20.87;42.52;100289.56;6382814;22;47288;-78
2021/12/11 00:43:40;;;;;;;;;10.00;8.00;;;;;20.86;42.30;100295.81;6383314;22;45396;-79
2021/12/11 00:46:08;;;;;;;;;7.50;7.50;;;;;20.87;42.57;100294.88;6410000;22;45384;-79
2021/12/11 00:48:34;;;;;;;;;10.50;9.50;;;;;20.86;42.30;100303.78;6409219;22;46572;-79
2021/12/11 00:51:04;;;;;;;;;10.75;9.00;;;;;20.87;42.63;100307.28;6381821;22;63514;-78
2021/12/11 00:53:42;;;;;;;;;8.25;8.25;;;;;20.85;42.23;100312.66;6409464;22;45340;-80
2021/12/11 00:56:14;;;;;;;;;7.75;6.75;;;;;20.86;42.30;100308.22;6383300;22;45204;-79
2021/12/11 00:58:40;;;;;;;;;8.75;7.25;;;;;20.85;42.51;100322.41;6408602;22;45247;-79
2021/12/11 01:01:10;;;;;;;;;9.00;7.50;;;;;20.86;42.44;100321.47;6382287;22;47772;-79
2021/12/11 01:03:35;;;;;;;;;11.75;8.50;;;;;20.87;42.41;100328.50;6409481;22;45187;-80
2021/12/11 01:06:12;;;;;;;;;7.00;7.00;;;;;20.85;42.72;100328.56;6438550;22;45179;-79
2021/12/11 01:08:40;;;;;;;;;8.50;8.50;;;;;20.87;42.09;100333.81;6408732;22;45441;-80
2021/12/11 01:11:07;;;;;;;;;8.00;7.25;;;;;20.87;42.29;100345.28;6381729;22;47533;-79
2021/12/11 01:13:35;;;;;;;;;7.50;7.00;;;;;20.87;42.31;100355.91;6409175;22;45247;-80
2021/12/11 01:16:05;;;;;;;;;6.00;6.00;;;;;20.86;42.00;100351.53;6382843;22;45189;-80
2021/12/11 01:18:36;;;;;;;;;8.25;6.50;;;;;20.88;42.23;100354.09;6408378;22;45390;-80
2021/12/11 01:21:24;;;;;;;;;9.75;9.00;;;;;20.88;42.45;100351.44;6382782;22;48129;-80
2021/12/11 01:24:08;;;;;;;;;8.75;7.50;;;;;20.89;42.31;100374.41;6391224;22;45341;-80
2021/12/11 01:26:38;;;;;;;;;10.00;9.00;;;;;20.88;42.34;100370.03;6408698;22;45430;-81
2021/12/11 01:29:03;;;;;;;;;11.75;9.00;;;;;20.87;42.30;100370.94;6382665;22;45379;-80
2021/12/11 01:31:29;;;;;;;;;14.25;8.75;;;;;20.89;42.58;100385.88;6437814;22;45123;-80
2021/12/11 01:33:54;;;;;;;;;13.25;10.00;;;;;20.89;42.48;100377.06;6382897;22;45214;-80
2021/12/11 01:36:20;;;;;;;;;10.50;7.75;;;;;20.88;42.35;100380.63;6381970;22;45132;-80
2021/12/11 01:38:45;;;;;;;;;11.00;10.25;;;;;20.87;42.49;100393.03;6408291;22;65745;-80
2021/12/11 01:41:17;;;;;;;;;14.75;12.25;;;;;20.89;42.65;100401.78;6409307;22;45131;-80
2021/12/11 01:43:43;;;;;;;;;14.00;11.75;;;;;20.88;42.21;100392.09;6411232;22;45265;-80
2021/12/11 01:46:08;;;;;;;;;13.75;13.75;;;;;20.88;42.34;100392.09;6382830;22;45405;-80
2021/12/11 01:48:39;;;;;;;;;14.00;12.75;;;;;20.88;42.45;100402.72;6382711;22;45238;-80
2021/12/11 01:51:06;;;;;;;;;12.00;12.00;;;;;20.88;42.53;100415.97;6408446;22;47094;-80
2021/12/11 01:53:35;;;;;;;;;14.50;14.50;;;;;20.88;42.37;100410.66;6437634;22;45278;-80
2021/12/11 01:56:07;;;;;;;;;18.50;17.50;;;;;20.89;42.56;100419.50;6383162;22;45294;-80
2021/12/11 01:58:39;;;;;;;;;15.75;14.50;;;;;20.87;42.45;100416.91;6375850;22;45406;-80
2021/12/11 02:01:12;;;;;;;;;20.75;18.50;;;;;20.88;42.05;100409.81;6376886;22;46252;-80
2021/12/11 02:03:38;;;;;;;;;17.00;14.75;;;;;20.87;42.56;100411.59;6370978;22;45416;-80
2021/12/11 02:06:04;;;;;;;;;25.25;19.50;;;;;20.88;42.37;100421.28;6358330;22;45294;-80
2021/12/11 02:08:33;;;;;;;;;18.50;18.00;;;;;20.88;42.51;100429.25;6344854;22;45319;-79
2021/12/11 02:11:16;;;;;;;;;14.00;13.00;;;;;20.88;42.35;100431.03;6375227;22;45488;-80
2021/12/11 02:13:49;;;;;;;;;17.50;16.50;;;;;20.88;42.54;100436.34;6377676;22;45227;-80
2021/12/11 02:16:27;;;;;;;;;20.75;18.75;;;;;20.87;42.41;100440.78;6351174;22;45303;-80
2021/12/11 02:18:57;;;;;;;;;29.75;23.25;;;;;20.87;42.06;100438.13;6404641;22;45076;-80
2021/12/11 02:21:26;;;;;;;;;35.50;28.50;;;;;20.89;42.42;100453.97;6404353;22;46402;-80
2021/12/11 02:24:09;;;;;;;;;28.75;25.50;;;;;20.88;42.28;100449.59;6404206;22;45298;-81
2021/12/11 02:26:37;;;;;;;;;32.00;25.50;;;;;20.86;42.13;100452.31;6376561;22;45309;-80
2021/12/11 02:29:20;;;;;;;;;29.00;25.25;;;;;20.87;42.17;100456.69;6379674;22;44600;-81
2021/12/11 02:31:52;;;;;;;;;32.00;28.25;;;;;20.88;42.24;100466.38;6406225;22;46280;-81
2021/12/11 02:34:25;;;;;;;;;27.75;24.50;;;;;20.87;42.46;100464.66;6406526;22;45295;-81
2021/12/11 02:36:54;;;;;;;;;22.75;22.25;;;;;20.88;42.21;100462.88;6378803;22;45199;-80
2021/12/11 02:39:25;;;;;;;;;31.50;29.50;;;;;20.88;42.33;100461.06;6405243;22;45328;-80
2021/12/11 02:42:14;;;;;;;;;27.00;22.00;;;;;20.89;42.31;100468.09;6407780;22;46016;-80
2021/12/11 02:45:03;;;;;;;;;24.25;21.50;;;;;20.89;42.37;100467.25;6378142;22;45303;-79
2021/12/11 02:47:33;;;;;;;;;25.25;21.75;;;;;20.89;42.49;100465.44;6381184;22;45143;-79
2021/12/11 02:49:59;;;;;;;;;25.00;21.00;;;;;20.90;42.17;100466.31;6377796;22;45904;-80
2021/12/11 02:52:40;;;;;;;;;24.25;21.50;;;;;20.89;42.19;100468.09;6406242;22;46081;-80
2021/12/11 02:55:22;;;;;;;;;27.00;23.50;;;;;20.91;42.12;100469.84;6380505;22;45432;-80
2021/12/11 02:57:53;;;;;;;;;30.00;25.00;;;;;20.89;42.44;100476.06;6406308;22;45297;-80
2021/12/11 03:00:23;;;;;;;;;26.50;22.75;;;;;20.89;42.51;100484.03;6319993;22;45350;-80
2021/12/11 03:03:00;;;;;;;;;23.25;20.25;;;;;20.92;42.64;100487.47;6373673;22;46249;-80
2021/12/11 03:05:34;;;;;;;;;23.75;18.50;;;;;20.91;42.59;100491.06;6374380;22;45171;-80
2021/12/11 03:08:01;;;;;;;;;24.25;23.25;;;;;20.91;42.55;100494.56;6348294;22;45335;-79
2021/12/11 03:10:26;;;;;;;;;22.00;20.00;;;;;20.92;42.24;100495.44;6319603;22;46378;-80
2021/12/11 03:12:54;;;;;;;;;22.50;21.75;;;;;20.91;42.33;100504.31;6374211;22;45203;-79
2021/12/11 03:15:19;;;;;;;;;20.50;19.25;;;;;20.92;42.65;100508.69;6375136;22;45333;-79
2021/12/11 03:17:45;;;;;;;;;19.50;18.75;;;;;20.92;42.27;100514.00;6347172;22;45287;-79
2021/12/11 03:20:12;;;;;;;;;18.75;17.50;;;;;20.92;42.29;100516.66;6375855;22;45419;-80
2021/12/11 03:22:38;;;;;;;;;20.25;16.25;;;;;20.92;42.56;100529.91;6374990;22;46249;-80
2021/12/11 03:25:06;;;;;;;;;19.25;16.00;;;;;20.91;42.49;100526.41;6345893;22;45191;-79
2021/12/11 03:27:31;;;;;;;;;17.75;16.50;;;;;20.90;42.34;100532.63;6349001;22;45239;-79
2021/12/11 03:29:57;;;;;;;;;17.00;15.25;;;;;20.91;42.40;100538.81;6319916;22;45258;-79
2021/12/11 03:32:22;;;;;;;;;15.00;14.50;;;;;20.92;42.24;100545.84;6345084;22;67873;-79
2021/12/11 03:34:48;;;;;;;;;18.25;16.25;;;;;20.90;42.25;100545.91;6371768;22;52436;-79
2021/12/11 03:37:14;;;;;;;;;19.00;14.50;;;;;20.91;42.23;100546.75;6319697;22;45274;-79
2021/12/11 03:39:43;;;;;;;;;16.25;13.75;;;;;20.90;42.37;100551.22;6346060;22;45316;-80
2021/12/11 03:42:21;;;;;;;;;14.50;13.00;;;;;20.92;42.58;100556.44;6319094;22;47329;-80
2021/12/11 03:44:47;;;;;;;;;18.75;17.25;;;;;20.91;42.29;100563.56;6320861;22;45584;-80
2021/12/11 03:47:16;;;;;;;;;17.00;15.50;;;;;20.90;42.26;100564.47;6373789;22;45120;-79
2021/12/11 03:49:42;;;;;;;;;19.25;14.50;;;;;20.91;42.20;100568.00;6373343;22;45233;-80
2021/12/11 03:52:08;;;;;;;;;15.50;12.75;;;;;20.91;42.04;100566.19;6345033;22;47981;-80
2021/12/11 03:54:35;;;;;;;;;15.75;13.00;;;;;20.92;42.44;100580.31;6345902;22;45337;-80
2021/12/11 03:57:00;;;;;;;;;15.50;12.50;;;;;20.92;42.12;100582.97;6373828;22;45246;-80
2021/12/11 03:59:26;;;;;;;;;13.75;13.50;;;;;20.93;42.32;100582.06;6393616;22;53649;-80
2021/12/11 04:02:03;;;;;;;;;16.00;11.75;;;;;20.92;42.07;100588.28;6405855;22;46162;-80
2021/12/11 04:04:31;;;;;;;;;14.75;12.25;;;;;20.93;42.38;100582.91;6353027;22;45523;-80
2021/12/11 04:06:57;;;;;;;;;11.75;11.00;;;;;20.92;42.44;100583.84;6377214;22;45265;-80
2021/12/11 04:09:22;;;;;;;;;15.25;12.75;;;;;20.93;42.12;100584.72;6350288;22;45279;-80
2021/12/11 04:11:48;;;;;;;;;15.25;12.75;;;;;20.93;42.39;100585.56;6350992;22;45258;-80
2021/12/11 04:14:19;;;;;;;;;12.25;12.25;;;;;20.93;42.10;100592.66;6350706;22;45121;-80
2021/12/11 04:16:44;;;;;;;;;15.50;13.00;;;;;20.92;42.56;100599.75;6377866;22;45390;-80
2021/12/11 04:19:11;;;;;;;;;13.25;11.50;;;;;20.93;42.61;100596.19;6351589;22;45296;-80
2021/12/11 04:21:36;;;;;;;;;9.50;9.50;;;;;20.92;42.42;100599.75;6350730;22;47414;-80
2021/12/11 04:24:02;;;;;;;;;14.50;12.00;;;;;20.92;42.16;100599.75;6351146;22;45175;-80
2021/12/11 04:26:28;;;;;;;;;13.00;11.50;;;;;20.92;42.48;100601.56;6350897;22;45180;-80
2021/12/11 04:28:53;;;;;;;;;11.50;10.25;;;;;20.92;42.21;100593.59;6349733;22;62293;-80
2021/12/11 04:31:21;;;;;;;;;15.50;11.75;;;;;20.94;42.49;100602.34;6350636;22;50644;-80
2021/12/11 04:33:48;;;;;;;;;15.00;13.25;;;;;20.93;42.05;100600.63;6350926;22;45265;-80
2021/12/11 04:36:19;;;;;;;;;12.00;11.50;;;;;20.93;42.19;100603.28;6351616;22;45223;-80
2021/12/11 04:38:45;;;;;;;;;16.50;14.25;;;;;20.92;42.19;100606.84;6351923;22;45184;-80
2021/12/11 04:41:15;;;;;;;;;11.75;11.50;;;;;20.92;42.02;100617.47;6324219;22;47092;-80
2021/12/11 04:43:41;;;;;;;;;18.25;11.50;;;;;20.92;41.95;100617.47;6405453;22;45360;-79
2021/12/11 04:46:08;;;;;;;;;15.25;13.25;;;;;20.92;42.24;100630.72;6378008;22;45410;-79
2021/12/11 04:48:45;;;;;;;;;15.75;12.50;;;;;20.92;42.02;100630.72;6351473;22;45299;-80
2021/12/11 04:57:12;;;;;;;;;15.00;12.25;;;;;20.90;41.96;100638.75;6359428;22;45468;-79
2021/12/11 05:00:08;;;;;;;;;12.25;9.25;;;;;20.92;42.22;100639.56;6358709;22;45325;-80
2021/12/11 05:10:12;;;;;;;;;11.75;11.00;;;;;20.93;42.13;100637.78;6377253;22;45547;-80
2021/12/11 05:12:38;;;;;;;;;11.25;9.75;;;;;20.93;41.99;100635.97;6353138;22;48062;-80
2021/12/11 05:15:09;;;;;;;;;13.00;13.00;;;;;20.94;42.31;100644.81;6377484;22;45174;-80
2021/12/11 05:17:34;;;;;;;;;13.25;11.50;;;;;20.93;42.28;100651.91;6351327;22;45358;-80
2021/12/11 05:20:00;;;;;;;;;11.50;11.50;;;;;20.93;42.13;100643.94;6377128;22;45303;-80
2021/12/11 05:22:25;;;;;;;;;12.50;10.00;;;;;20.93;42.40;100643.06;6349761;22;48409;-80
2021/12/11 05:24:53;;;;;;;;;14.50;12.50;;;;;20.93;42.13;100651.91;6376881;22;45476;-79
2021/12/11 05:27:18;;;;;;;;;14.00;11.75;;;;;20.93;41.90;100662.50;6350991;22;45218;-80
2021/12/11 05:29:44;;;;;;;;;12.75;10.75;;;;;20.93;42.09;100665.16;6350592;22;45238;-80
2021/12/11 05:32:11;;;;;;;;;12.25;10.75;;;;;20.93;41.84;100669.59;6377099;22;46416;-81
2021/12/11 05:34:36;;;;;;;;;9.75;8.50;;;;;20.92;42.33;100665.22;6350667;22;45189;-79
2021/12/11 05:37:02;;;;;;;;;14.00;10.50;;;;;20.93;42.19;100681.09;6350154;22;45250;-79
2021/12/11 05:39:28;;;;;;;;;9.00;9.00;;;;;20.93;42.35;100696.13;6350242;22;45773;-78
2021/12/11 05:41:53;;;;;;;;;13.50;9.25;;;;;20.94;42.17;100697.88;6376598;22;51232;-78
2021/12/11 05:44:20;;;;;;;;;8.25;8.25;;;;;20.90;42.03;100689.16;6375857;22;67250;-78
2021/12/11 05:46:45;;;;;;;;;10.00;10.00;;;;;20.92;41.97;100697.06;6350583;22;45277;-77
2021/12/11 05:49:14;;;;;;;;;14.00;11.50;;;;;20.92;42.06;100705.88;6350615;22;45356;-78
2021/12/11 05:51:41;;;;;;;;;9.75;9.00;;;;;20.93;42.06;100706.75;6350518;22;45217;-79
2021/12/11 05:54:09;;;;;;;;;11.00;9.75;;;;;20.92;41.76;100718.28;6323467;22;45191;-78
2021/12/11 05:56:37;;;;;;;;;10.25;10.25;;;;;20.92;41.99;100715.63;6350671;22;45216;-80
2021/12/11 05:59:04;;;;;;;;;13.25;10.25;;;;;20.92;42.62;100726.25;6376574;22;45524;-76
2021/12/11 06:01:39;;;;;;;;;13.50;11.25;;;;;20.94;42.39;100740.31;6350270;22;45373;-75
2021/12/11 06:04:07;;;;;;;;;11.50;10.25;;;;;21.01;44.46;100748.03;6345618;22;45201;-75
2021/12/11 06:06:32;;;;;;;;;11.50;10.50;;;;;21.11;44.93;100759.19;6371399;22;45232;-78
2021/12/11 06:09:01;;;;;;;;;9.50;9.50;;;;;21.18;45.05;100750.97;6351349;22;45404;-78
2021/12/11 06:11:30;;;;;;;;;14.25;13.00;;;;;21.29;45.45;100761.28;6352719;22;45395;-75
2021/12/11 06:13:55;;;;;;;;;10.25;10.00;;;;;21.34;44.80;100761.09;6324885;22;45433;-76
2021/12/11 06:16:21;;;;;;;;;10.75;10.25;;;;;21.40;45.24;100759.09;6377619;22;61792;-75
2021/12/11 06:18:46;;;;;;;;;13.25;9.75;;;;;21.46;45.36;100763.34;6351496;22;45225;-77
2021/12/11 06:21:12;;;;;;;;;12.25;9.75;;;;;21.49;43.48;100765.00;6351847;22;45853;-77
2021/12/11 06:23:38;;;;;;;;;14.25;10.25;;;;;21.47;43.61;100766.88;6351566;22;45235;-80
2021/12/11 06:26:03;;;;;;;;;10.75;10.00;;;;;21.50;43.86;100769.41;6351524;22;45658;-76
2021/12/11 06:28:29;;;;;;;;;13.00;13.00;;;;;21.50;43.52;100767.63;6378188;22;45199;-79
2021/12/11 06:30:57;;;;;;;;;12.75;8.50;;;;;21.51;43.83;100769.34;6351054;22;47216;-77
2021/12/11 06:33:26;;;;;;;;;8.50;8.50;;;;;21.51;43.41;100771.13;6379192;22;45202;-78
2021/12/11 06:35:53;;;;;;;;;14.50;10.50;;;;;21.52;43.65;100780.81;6352011;22;45249;-72
2021/12/11 06:38:22;;;;;;;;;8.75;7.50;;;;;21.51;43.97;100781.75;6351125;22;45748;-77
2021/12/11 06:40:47;;;;;;;;;12.25;10.00;;;;;21.50;43.32;100785.34;6351924;22;45280;-77
2021/12/11 06:43:13;;;;;;;;;12.25;9.00;;;;;21.51;43.45;100789.72;6376311;22;74430;-77
2021/12/11 06:45:38;;;;;;;;;11.25;10.00;;;;;21.50;43.31;100791.50;6377989;22;45177;-77
2021/12/11 06:48:04;;;;;;;;;12.00;10.00;;;;;21.49;43.55;100797.75;6350219;22;65060;-79
2021/12/11 06:50:30;;;;;;;;;12.50;9.00;;;;;21.49;43.82;100802.19;6353114;22;47555;-75
2021/12/11 06:52:55;;;;;;;;;10.50;10.50;;;;;21.50;44.46;100809.22;6406146;22;49113;-77
2021/12/11 06:55:21;;;;;;;;;12.00;10.75;;;;;21.53;44.48;100819.75;6351907;22;45184;-77
2021/12/11 06:57:47;;;;;;;;;10.50;9.50;;;;;21.58;44.78;100821.31;6324646;22;45385;-79
2021/12/11 07:00:17;;;;;;;;;12.00;10.50;;;;;21.61;45.08;100818.56;6403137;22;47013;-81
2021/12/11 07:02:42;;;;;;;;;9.00;8.25;;;;;21.66;45.15;100826.38;6351021;22;45349;-82
2021/12/11 07:05:08;;;;;;;;;9.25;7.75;;;;;21.66;44.74;100829.91;6377701;22;45895;-79
2021/12/11 07:07:35;;;;;;;;;11.50;7.25;;;;;21.67;44.73;100836.94;6377746;22;45441;-79
2021/12/11 07:10:02;;;;;;;;;11.00;8.75;;;;;21.72;44.42;100834.13;6378027;22;46004;-81
2021/12/11 07:12:27;;;;;;;;;14.25;11.50;;;;;21.75;44.58;100838.47;6378039;22;45204;-77
2021/12/11 07:14:53;;;;;;;;;9.00;8.75;;;;;21.78;44.17;100847.19;6378140;22;45266;-77
2021/12/11 07:17:19;;;;;;;;;10.25;10.25;;;;;21.80;44.28;100857.75;6376843;22;45400;-81
2021/12/11 07:19:45;;;;;;;;;9.75;7.50;;;;;21.81;43.86;100860.38;6377813;22;47714;-72
2021/12/11 07:22:10;;;;;;;;;7.00;6.00;;;;;21.80;44.38;100863.06;6376651;22;64001;-79
2021/12/11 07:24:51;;;;;;;;;10.00;10.00;;;;;21.81;44.14;100873.66;6406092;22;45300;-73
2021/12/11 07:27:18;;;;;;;;;9.50;9.50;;;;;21.80;44.07;100879.00;6406096;22;45154;-74
2021/12/11 07:29:43;;;;;;;;;9.25;7.00;;;;;21.75;44.08;100868.56;6405703;22;46062;-74
2021/12/11 07:32:09;;;;;;;;;11.50;10.00;;;;;21.73;43.96;100876.59;6377769;22;52206;-74
2021/12/11 07:34:34;;;;;;;;;13.50;7.50;;;;;21.71;43.68;100878.41;6377809;22;45246;-73
2021/12/11 07:37:01;;;;;;;;;8.50;8.50;;;;;21.69;43.92;100874.06;6406365;22;69046;-73
2021/12/11 07:39:27;;;;;;;;;10.75;8.00;;;;;21.66;43.93;100880.38;6406266;22;46036;-74
2021/12/11 07:41:53;;;;;;;;;6.25;5.75;;;;;21.64;43.77;100878.69;6405464;22;57708;-74
2021/12/11 07:44:18;;;;;;;;;10.25;7.00;;;;;21.61;43.93;100892.06;6377132;22;45197;-74
2021/12/11 07:46:44;;;;;;;;;7.00;7.00;;;;;21.60;43.24;100901.81;6351251;22;45347;-74
2021/12/11 07:49:09;;;;;;;;;10.25;10.25;;;;;21.58;43.55;100908.09;6406408;22;65964;-74
2021/12/11 07:51:35;;;;;;;;;8.00;7.75;;;;;21.57;43.64;100914.34;6325379;22;45212;-76
2021/12/11 07:54:01;;;;;;;;;9.25;8.00;;;;;21.57;43.61;100914.34;6377490;22;45141;-75
2021/12/11 07:56:26;;;;;;;;;12.50;11.25;;;;;21.56;43.58;100921.44;6377336;22;45204;-75
2021/12/11 07:58:57;;;;;;;;;8.00;8.00;;;;;21.54;43.14;100919.72;6405012;22;46742;-77
2021/12/11 08:01:22;;;;;;;;;10.50;7.75;;;;;21.51;42.93;100914.53;6351090;22;45337;-76
2021/12/11 08:03:48;;;;;;;;;8.75;8.25;;;;;21.47;42.66;100921.75;6350861;22;45174;-78
2021/12/11 08:06:13;;;;;;;;;8.50;7.25;;;;;21.42;42.19;100924.53;6377296;22;51163;-77
2021/12/11 08:08:39;;;;;;;;;6.25;6.00;;;;;21.37;41.99;100929.16;6352419;22;45200;-76
2021/12/11 08:11:11;;;;;;;;;10.25;9.25;;;;;21.36;41.86;100943.31;6377779;22;45745;-76
2021/12/11 08:13:37;;;;;;;;;6.50;6.00;;;;;21.33;41.68;100946.09;6354382;22;45285;-76
2021/12/11 08:16:02;;;;;;;;;5.75;3.00;;;;;21.31;41.31;100944.41;6351443;22;45246;-75
2021/12/11 08:18:28;;;;;;;;;7.00;6.50;;;;;21.29;41.22;100955.06;6352045;22;48142;-77
2021/12/11 08:20:54;;;;;;;;;7.00;7.00;;;;;21.27;41.31;100959.53;6350571;22;45201;-77
2021/12/11 08:23:19;;;;;;;;;7.25;5.00;;;;;21.26;41.17;100965.72;6351258;22;45175;-75
2021/12/11 08:25:46;;;;;;;;;10.25;8.50;;;;;21.24;40.90;100970.22;6377365;22;45186;-74
2021/12/11 08:28:15;;;;;;;;;8.00;6.50;;;;;21.23;40.88;100965.84;6349722;22;47159;-81
2021/12/11 08:30:41;;;;;;;;;7.00;5.75;;;;;21.21;40.64;100958.84;6377628;22;45370;-78
2021/12/11 08:33:07;;;;;;;;;7.75;6.00;;;;;21.21;40.65;100966.81;6406222;22;45426;-76
2021/12/11 08:35:32;;;;;;;;;9.00;6.25;;;;;21.21;40.50;100970.34;6377513;22;48287;-77
2021/12/11 08:37:57;;;;;;;;;6.00;6.00;;;;;21.22;40.94;100980.03;6376793;22;60142;-74
2021/12/11 08:40:29;;;;;;;;;7.25;5.50;;;;;21.24;41.22;100974.66;6405289;22;61126;-74
2021/12/11 08:42:54;;;;;;;;;8.75;5.75;;;;;21.24;41.26;100972.03;6351277;22;45293;-73
2021/12/11 08:45:23;;;;;;;;;7.50;7.25;;;;;21.27;41.10;100961.31;6376976;22;45850;-73
2021/12/11 08:47:51;;;;;;;;;8.50;5.50;;;;;21.28;41.20;100963.06;6405254;22;45913;-74
2021/12/11 08:50:18;;;;;;;;;8.25;6.75;;;;;21.29;41.27;100976.31;6406284;22;45191;-75
2021/12/11 08:52:44;;;;;;;;;8.25;7.00;;;;;21.31;41.42;100976.25;6350152;22;45298;-75
2021/12/11 08:55:12;;;;;;;;;8.75;7.50;;;;;21.33;41.09;100982.38;6350411;22;45254;-73
2021/12/11 08:57:39;;;;;;;;;6.50;5.75;;;;;21.36;41.57;100987.59;6350400;22;48450;-73
2021/12/11 09:00:08;;;;;;;;;7.75;6.25;;;;;21.37;41.40;101000.84;6377955;22;45507;-74
2021/12/11 09:02:37;;;;;;;;;7.25;7.25;;;;;21.38;41.56;100993.75;6378254;22;45317;-73
2021/12/11 09:05:13;;;;;;;;;5.75;5.75;;;;;21.43;41.47;100995.31;6406737;22;45233;-73
2021/12/11 09:07:52;;;;;;;;;7.75;7.00;;;;;21.44;41.16;100998.84;6377998;22;45214;-74
2021/12/11 09:10:22;;;;;;;;;7.75;6.50;;;;;21.49;41.52;101004.00;6350728;22;45361;-73
2021/12/11 09:12:57;;;;;;;;;5.25;4.75;;;;;21.50;41.33;101011.06;6350904;22;45201;-73
2021/12/11 09:15:42;;;;;;;;;9.75;9.00;;;;;21.51;41.17;101012.78;6351805;22;45328;-74
2021/12/11 09:18:18;;;;;;;;;6.00;6.00;;;;;21.55;41.39;101009.16;6379057;22;45359;-75
2021/12/11 09:20:46;;;;;;;;;7.75;4.25;;;;;21.57;41.08;101028.56;6350540;22;45995;-74
2021/12/11 09:23:30;;;;;;;;;7.75;7.00;;;;;21.57;40.86;101028.56;6379228;22;45195;-75
2021/12/11 09:26:00;;;;;;;;;8.75;5.75;;;;;21.56;40.89;101037.44;6349980;22;45190;-75
2021/12/11 09:28:53;;;;;;;;;8.00;7.25;;;;;21.54;41.34;101048.09;6350194;22;47247;-74
2021/12/11 09:31:42;;;;;;;;;8.25;6.00;;;;;21.53;40.98;101054.31;6392979;22;45472;-74
2021/12/11 09:34:33;;;;;;;;;7.00;6.75;;;;;21.49;41.42;101058.00;6376327;22;45211;-75
2021/12/11 09:36:59;;;;;;;;;10.00;6.25;;;;;21.48;41.37;101060.72;6337141;22;45354;-73
2021/12/11 09:39:34;;;;;;;;;8.00;6.50;;;;;21.51;41.36;101071.22;6350163;22;46040;-77
2021/12/11 09:41:59;;;;;;;;;8.00;7.00;;;;;21.49;41.68;101075.72;6351757;22;45330;-74
2021/12/11 09:44:24;;;;;;;;;5.00;5.00;;;;;21.45;41.17;101078.44;6405449;22;45348;-74
2021/12/11 09:47:00;;;;;;;;;5.00;5.00;;;;;21.40;41.17;101069.78;6405195;22;45318;-74
2021/12/11 09:49:29;;;;;;;;;8.25;3.50;;;;;21.42;41.46;101072.38;6351110;22;45912;-76
2021/12/11 09:52:01;;;;;;;;;7.25;7.00;;;;;21.37;41.34;101068.97;6351473;22;45333;-77
2021/12/11 09:54:27;;;;;;;;;6.00;5.00;;;;;21.39;41.72;101072.47;6354184;22;45306;-74
2021/12/11 09:56:58;;;;;;;;;7.00;6.00;;;;;21.40;41.63;101069.78;6327003;22;45140;-74
2021/12/11 09:59:24;;;;;;;;;7.00;5.00;;;;;21.41;41.38;101081.25;6404318;22;46037;-74
2021/12/11 10:02:00;;;;;;;;;5.50;5.50;;;;;21.41;41.69;101086.56;6405040;22;45355;-75
2021/12/11 10:04:32;;;;;;;;;5.50;4.75;;;;;21.40;41.22;101096.31;6351808;22;45399;-74
2021/12/11 10:07:24;;;;;;;;;7.00;5.50;;;;;21.39;41.70;101094.59;6405049;22;45215;-73
2021/12/11 10:09:51;;;;;;;;;5.25;3.00;;;;;21.41;41.81;101097.19;6379946;22;45998;-71
2021/12/11 10:12:25;;;;;;;;;9.25;7.00;;;;;21.37;41.70;101091.13;6349093;22;45222;-73
2021/12/11 10:15:45;;;;;;;;;;;;;;;;;;;;;
2021/12/11 10:18:14;;;;;;;;;6.00;5.00;;;;;21.38;41.87;101103.47;6365606;22;73324;-73
2021/12/11 10:20:48;;;;;;;;;7.00;7.00;;;;;21.37;41.77;101101.75;6405002;22;45182;-72
2021/12/11 10:23:16;;;;;;;;;6.00;6.00;;;;;21.37;41.96;101096.44;6350278;22;45260;-72
2021/12/11 10:25:42;;;;;;;;;9.25;5.50;;;;;21.40;42.05;101103.41;6376459;22;45255;-72
2021/12/11 10:28:13;;;;;;;;;9.00;6.00;;;;;21.38;41.85;101097.28;6404653;22;45092;-72
2021/12/11 10:30:44;;;;;;;;;8.75;5.00;;;;;21.37;41.67;101095.53;6376927;22;45959;-72
2021/12/11 10:33:11;;;;;;;;;8.25;4.75;;;;;21.38;41.98;101098.16;6377186;22;45406;-72
2021/12/11 10:35:40;;;;;;;;;7.00;6.00;;;;;21.38;42.04;101097.28;6350178;22;45199;-72
2021/12/11 10:38:06;;;;;;;;;6.50;6.50;;;;;21.36;42.20;101102.63;6375157;22;45259;-73
2021/12/11 10:40:38;;;;;;;;;11.00;6.00;;;;;21.35;42.36;101105.31;6376240;22;46429;-74
2021/12/11 10:43:15;;;;;;;;;7.75;6.50;;;;;21.37;41.86;101106.16;6375659;22;45950;-73
2021/12/11 10:45:41;;;;;;;;;7.25;5.50;;;;;21.37;42.07;101109.69;6376559;22;45196;-72
2021/12/11 10:48:10;;;;;;;;;6.50;4.25;;;;;21.35;42.27;101098.22;6375295;22;45319;-76
2021/12/11 10:50:37;;;;;;;;;9.75;7.75;;;;;21.38;42.34;101116.75;6376072;22;45422;-73
2021/12/11 10:53:03;;;;;;;;;7.25;6.00;;;;;21.36;41.98;101105.28;6376787;22;45232;-73
2021/12/11 10:55:30;;;;;;;;;10.50;6.50;;;;;21.38;42.79;101116.75;6350936;22;45185;-74
2021/12/11 10:57:57;;;;;;;;;8.25;6.50;;;;;21.40;42.93;101124.66;6377769;22;45190;-73
2021/12/11 11:00:30;;;;;;;;;7.25;6.25;;;;;21.40;42.50;101117.56;6377217;22;46069;-73
2021/12/11 11:02:59;;;;;;;;;8.00;6.00;;;;;21.40;42.51;101120.22;6350758;22;45140;-80
2021/12/11 11:05:27;;;;;;;;;6.50;5.50;;;;;21.40;42.57;101122.00;6358096;22;45211;-73
2021/12/11 11:07:52;;;;;;;;;8.50;7.50;;;;;21.39;42.84;101117.63;6359684;22;45772;-75
2021/12/11 11:10:45;;;;;;;;;7.50;7.50;;;;;21.42;43.42;101115.72;6380110;22;45931;-76
2021/12/11 11:13:12;;;;;;;;;9.75;7.00;;;;;21.46;44.00;101132.47;6376651;22;45725;-74
2021/12/11 11:15:37;;;;;;;;;8.75;6.50;;;;;21.49;44.14;101126.19;6350825;22;45376;-82
2021/12/11 11:18:04;;;;;;;;;8.50;6.75;;;;;21.45;44.76;101115.63;6350647;22;45332;-74
2021/12/11 11:20:35;;;;;;;;;9.25;7.50;;;;;21.52;44.96;101123.41;6377172;22;48161;-76
2021/12/11 11:23:06;;;;;;;;;6.50;6.00;;;;;21.50;44.52;101122.59;6350384;22;45530;-74
2021/12/11 11:25:39;;;;;;;;;7.75;4.25;;;;;21.52;44.84;101115.44;6351790;22;45241;-76
2021/12/11 11:28:10;;;;;;;;;8.25;6.50;;;;;21.51;45.38;101108.41;6352476;22;45133;-75
2021/12/11 11:30:59;;;;;;;;;8.25;6.75;;;;;21.58;45.37;101120.59;6350621;22;47009;-78
2021/12/11 11:33:27;;;;;;;;;7.25;5.25;;;;;21.59;45.79;101119.66;6354105;22;45233;-85
2021/12/11 11:35:57;;;;;;;;;10.00;8.50;;;;;21.61;45.06;101107.19;6350597;22;45415;-81
2021/12/11 11:38:26;;;;;;;;;6.00;5.75;;;;;21.63;44.61;101119.53;6380533;22;45242;-83
2021/12/11 11:40:56;;;;;;;;;7.75;6.00;;;;;21.63;44.16;101122.19;6380773;22;46057;-75
2021/12/11 11:43:21;;;;;;;;;8.00;5.50;;;;;21.62;43.84;101124.88;6406034;22;45380;-74